DW2802 Ogijares ES current weather conditions

sailwx.info

Wind from 035

Air temperature 21.1° C
Dewpoint 16.1° C

Last reported at 2019-Sep-20 19:00 UTC.
Time now 2019-Sep-20 20:15 UTC

Location: N 37°07' W 003°36'.
View on Google Maps.

See reports from other nearby stations

  
Tides and Currents Weather Stations Pressure Air Temp Water Temp Dewpoint Dewpoint Depression Visibility Wind Speed Wind Dir Waves Ship Positions
date/time (UTC)wind fromknots sea level pressurealtimeterstation pressurevisibilityair tempwater tempwave heightnotes
2019-Sep-20 19:00 035 21.1
2019-Sep-20 18:46 035 1 gusting 6 21.7
2019-Sep-20 18:31 063 6 gusting 9 21.7
2019-Sep-20 18:16 078 4 gusting 9 21.7
2019-Sep-20 18:00 127 2 gusting 10 21.1
2019-Sep-20 17:46 151 8 gusting 13 21.7
2019-Sep-20 17:31 161 6 gusting 9 21.7
2019-Sep-20 17:15 152 4 gusting 10 21.7
2019-Sep-20 17:00 153 7 gusting 13 22.2
2019-Sep-20 16:46 346 1 gusting 4 22.8
2019-Sep-20 16:31 281 22.8
2019-Sep-20 16:16 027 5 gusting 7 22.8
2019-Sep-20 16:01 360 3 gusting 7 23.3
2019-Sep-20 15:45 177 1 gusting 6 22.8
2019-Sep-20 15:30 107 6 gusting 13 22.8
2019-Sep-20 15:15 159 4 gusting 7 23.3
2019-Sep-20 15:01 159 5 gusting 8 23.9
2019-Sep-20 14:45 192 6 gusting 13 23.3
2019-Sep-20 14:31 196 4 gusting 9 23.9
2019-Sep-20 14:15 175 6 gusting 11 23.9
2019-Sep-20 14:00 163 6 gusting 13 23.9
2019-Sep-20 13:45 178 8 gusting 16 23.9
2019-Sep-20 13:30 149 7 gusting 13 23.9
2019-Sep-20 13:15 221 3 gusting 10 23.9
2019-Sep-20 13:00 194 6 gusting 13 23.9
2019-Sep-20 12:45 162 6 gusting 13 23.9
2019-Sep-20 12:30 153 8 gusting 13 23.9
2019-Sep-20 12:15 206 6 gusting 10 23.9
2019-Sep-20 12:01 163 4 gusting 10 23.3
2019-Sep-20 11:46 213 5 gusting 11 23.3
2019-Sep-20 11:31 157 7 gusting 12 23.3
2019-Sep-20 11:17 148 6 gusting 13 22.8
2019-Sep-20 11:01 165 6 gusting 13 22.2
2019-Sep-20 10:47 152 7 gusting 15 21.7
2019-Sep-20 10:31 165 7 gusting 14 21.1
2019-Sep-20 10:02 146 9 gusting 17 21.1
2019-Sep-20 09:46 180 12 gusting 16 21.1
2019-Sep-20 09:31 160 10 gusting 16 21.1
2019-Sep-20 09:16 190 9 gusting 17 21.1
2019-Sep-20 09:00 154 8 gusting 15 20.6
2019-Sep-20 07:45 134 19.4
2019-Sep-20 07:30 134 18.3
2019-Sep-20 07:15 134 17.8
2019-Sep-20 07:00 134 17.2
2019-Sep-20 06:45 134 16.7
2019-Sep-20 06:30 134 16.1
2019-Sep-20 06:15 134 16.1
2019-Sep-20 06:00 134 16.7
2019-Sep-20 05:45 134 16.7
2019-Sep-20 05:30 134 16.7
2019-Sep-20 05:15 134 16.7
2019-Sep-20 05:00 134 16.7
2019-Sep-20 04:45 134 17.2
2019-Sep-20 04:30 134 16.7
2019-Sep-20 04:16 134 17.2
2019-Sep-20 04:01 134 17.2
2019-Sep-20 03:46 134 17.2
2019-Sep-20 03:31 134 17.2
2019-Sep-20 03:16 134 17.8
2019-Sep-20 03:01 134 17.8
2019-Sep-20 02:46 134 17.8
2019-Sep-20 02:31 134 18.3
2019-Sep-20 02:16 134 18.9
2019-Sep-20 02:03 134 18.9
2019-Sep-20 01:45 134 0 gusting 3 19.4
2019-Sep-20 01:31 134 0 gusting 6 19.4
2019-Sep-20 01:16 133 18.9
2019-Sep-20 01:01 133 18.9
2019-Sep-20 00:46 133 19.4
2019-Sep-20 00:31 133 1 gusting 3 20.0
2019-Sep-20 00:15 133 0 gusting 6 20.0
2019-Sep-20 00:01 130 2 gusting 4 18.9
2019-Sep-19 23:46 129 2 gusting 4 18.9
2019-Sep-19 23:31 129 1 gusting 2 19.4
2019-Sep-19 23:16 129 19.4
2019-Sep-19 23:01 129 1 gusting 2 19.4
2019-Sep-19 22:45 129 1 gusting 6 18.9
2019-Sep-19 22:30 129 1 gusting 3 18.9
2019-Sep-19 22:15 129 2 gusting 4 19.4
2019-Sep-19 22:00 129 1 gusting 2 19.4
2019-Sep-19 21:45 129 0 gusting 2 20.6
2019-Sep-19 21:30 129 1 gusting 3 21.1
2019-Sep-19 21:16 129 0 gusting 2 21.7
2019-Sep-19 21:00 129 22.2
2019-Sep-19 20:45 130 0 gusting 2 22.8
2019-Sep-19 20:30 130 2 gusting 4 22.8
2019-Sep-19 20:15 131 2 gusting 3 22.8
2019-Sep-19 20:00 132 0 gusting 4 22.8
2019-Sep-19 19:45 163 2 gusting 5 23.3
2019-Sep-19 19:30 175 0 gusting 4 23.3
2019-Sep-19 19:15 186 4 gusting 9 23.3
2019-Sep-19 19:00 190 6 gusting 9 23.3
2019-Sep-19 18:45 187 4 gusting 6 23.9
2019-Sep-19 18:30 161 5 gusting 9 23.9
2019-Sep-19 18:15 163 6 gusting 13 23.9
2019-Sep-19 18:00 167 5 gusting 8 24.4
2019-Sep-19 17:45 183 5 gusting 8 25.0
2019-Sep-19 17:30 194 3 gusting 7 25.6
2019-Sep-19 17:15 175 5 gusting 8 26.1
2019-Sep-19 17:00 169 6 gusting 10 26.7
2019-Sep-19 16:45 175 6 gusting 14 27.2
2019-Sep-19 16:30 188 5 gusting 9 27.8
2019-Sep-19 16:15 182 5 gusting 9 27.8
2019-Sep-19 16:00 149 5 gusting 8 27.8
2019-Sep-19 15:45 148 4 gusting 9 28.3
2019-Sep-19 15:30 231 5 gusting 8 27.8
2019-Sep-19 15:15 202 6 gusting 12 28.3
2019-Sep-19 15:02 201 6 gusting 12 27.8
2019-Sep-19 14:47 186 6 gusting 10 27.8
2019-Sep-19 14:31 184 5 gusting 11 27.8
2019-Sep-19 14:16 182 3 gusting 9 27.8
2019-Sep-19 14:01 171 5 gusting 13 27.8
2019-Sep-19 13:46 169 5 gusting 10 27.2
2019-Sep-19 13:31 188 6 gusting 16 27.2
2019-Sep-19 13:16 156 6 gusting 12 26.7
2019-Sep-19 13:01 144 8 gusting 15 26.7
2019-Sep-19 12:46 191 6 gusting 13 26.7
2019-Sep-19 12:32 165 7 gusting 15 26.7
2019-Sep-19 12:16 188 8 gusting 13 26.7
2019-Sep-19 12:00 163 8 gusting 13 26.7
2019-Sep-19 11:46 232 2 gusting 5 26.1
2019-Sep-19 11:31 217 4 gusting 10 25.0
2019-Sep-19 11:16 260 2 gusting 7 25.0
2019-Sep-19 11:01 230 1 gusting 4 24.4
2019-Sep-19 10:46 225 1 gusting 4 23.9
2019-Sep-19 10:30 223 1 gusting 3 23.9
2019-Sep-19 10:15 223 1 gusting 4 23.3
2019-Sep-19 10:00 223 0 gusting 4 22.8
2019-Sep-19 09:47 221 1 gusting 4 22.2
2019-Sep-19 09:32 219 2 gusting 5 21.7
2019-Sep-19 09:15 215 1 gusting 4 21.1
2019-Sep-19 09:00 215 1 gusting 3 20.6
2019-Sep-19 08:45 215 1 gusting 3 20.0
2019-Sep-19 08:30 215 1 gusting 3 19.4
2019-Sep-19 08:15 215 0 gusting 3 18.9
2019-Sep-19 08:00 215 18.3
2019-Sep-19 07:45 215 0 gusting 2 18.3
2019-Sep-19 07:30 215 17.2
2019-Sep-19 07:17 215 16.7
2019-Sep-19 07:01 215 16.1
2019-Sep-19 06:47 215 1 gusting 2 15.6
2019-Sep-19 06:31 215 0 gusting 1 15.6
2019-Sep-19 06:16 215 0 gusting 1 15.6
2019-Sep-19 06:01 215 15.6
2019-Sep-19 05:46 215 15.6
2019-Sep-19 05:31 215 1 gusting 2 15.6
2019-Sep-19 05:16 215 0 gusting 1 15.6
2019-Sep-19 05:01 215 16.1
2019-Sep-19 04:46 215 0 gusting 1 16.1
2019-Sep-19 04:31 215 1 gusting 2 16.1
2019-Sep-19 04:17 215 1 gusting 2 16.1
2019-Sep-19 04:01 215 0 gusting 1 16.1
2019-Sep-19 03:45 215 0 gusting 2 16.1
2019-Sep-19 03:30 215 0 gusting 2 16.7
2019-Sep-19 03:16 215 0 gusting 2 16.7
2019-Sep-19 03:01 215 0 gusting 2 16.7
2019-Sep-19 02:46 215 16.7
2019-Sep-19 02:30 215 1 gusting 2 16.7
2019-Sep-19 02:16 215 2 gusting 4 16.7
2019-Sep-19 02:01 215 2 gusting 3 16.7
2019-Sep-19 01:46 215 1 gusting 2 16.7
2019-Sep-19 01:30 215 1 gusting 3 17.2
2019-Sep-19 01:16 215 17.2
2019-Sep-19 01:01 215 0 gusting 1 17.8
2019-Sep-19 00:45 215 17.8
2019-Sep-19 00:30 215 1 gusting 3 18.3
2019-Sep-19 00:15 215 2 gusting 3 18.3
2019-Sep-19 00:00 215 2 gusting 4 18.9
2019-Sep-18 23:45 218 3 gusting 5 18.9
2019-Sep-18 23:30 228 3 gusting 5 18.9
2019-Sep-18 23:15 233 1 gusting 3 19.4
2019-Sep-18 23:00 235 2 gusting 4 19.4
2019-Sep-18 22:45 236 2 gusting 3 19.4
2019-Sep-18 22:32 237 1 gusting 4 20.0
2019-Sep-18 22:17 237 2 gusting 3 20.0
2019-Sep-18 22:01 237 2 gusting 4 20.0
2019-Sep-18 21:46 238 2 gusting 4 20.0
2019-Sep-18 21:32 238 1 gusting 3 20.6
2019-Sep-18 21:17 238 2 gusting 4 20.0
2019-Sep-18 21:01 242 1 gusting 3 20.6
2019-Sep-18 20:46 242 3 gusting 4 20.6
2019-Sep-18 20:32 248 2 gusting 4 21.1
2019-Sep-18 20:17 252 2 gusting 6 21.7
2019-Sep-18 20:02 259 2 gusting 5 22.2